AXB2892 VEBD-VEAT
Flight info
| Callsign | AXB2892 |
|---|---|
| Flight time | 0h 54m |
| Altitude | 37000 |
| Route | BGD W137 GGT/N0450F280 R472 AAT |
| Aircraft | A20N/M-SDE2E3FGHIRWXY/LB1 |
Departure
| Time | 2026-05-06 03:01 |
|---|---|
| Airport | Bagdogra Airport (VEBD) |
Arrival
| Time | 2026-05-06 03:55 |
|---|---|
| Airport | Agartala - Maharaja Bir Bikram Airport (VEAT) |
| Time | Latitude | Longitude | Altitude | Speed | Heading |
|---|---|---|---|---|---|
| 2026-05-06 02:34 | 26.68493 | 88.32653 | 420 ft | 0 kts | 75° |
| 2026-05-06 02:50 | 26.68494 | 88.32657 | 419 ft | 2 kts | 75° |
| 2026-05-06 02:51 | 26.68507 | 88.32675 | 421 ft | 1 kts | 3° |
| 2026-05-06 02:51 | 26.68508 | 88.32673 | 420 ft | 1 kts | 339° |
| 2026-05-06 02:51 | 26.68516 | 88.32672 | 419 ft | 0 kts | 359° |
| 2026-05-06 02:52 | 26.68530 | 88.32673 | 418 ft | 3 kts | 7° |
| 2026-05-06 02:53 | 26.68543 | 88.32696 | 425 ft | 5 kts | 74° |
| 2026-05-06 02:53 | 26.68547 | 88.32756 | 429 ft | 10 kts | 89° |
| 2026-05-06 02:53 | 26.68498 | 88.32805 | 425 ft | 12 kts | 189° |
| 2026-05-06 02:53 | 26.68401 | 88.32813 | 419 ft | 16 kts | 177° |
| 2026-05-06 02:54 | 26.68272 | 88.32810 | 422 ft | 20 kts | 182° |
| 2026-05-06 02:54 | 26.68137 | 88.32805 | 418 ft | 20 kts | 182° |
| 2026-05-06 02:54 | 26.68042 | 88.32801 | 416 ft | 13 kts | 182° |
| 2026-05-06 02:54 | 26.67936 | 88.32796 | 416 ft | 17 kts | 182° |
| 2026-05-06 02:55 | 26.67826 | 88.32791 | 419 ft | 12 kts | 182° |
| 2026-05-06 02:55 | 26.67729 | 88.32787 | 413 ft | 16 kts | 182° |
| 2026-05-06 02:55 | 26.67605 | 88.32781 | 413 ft | 20 kts | 182° |
| 2026-05-06 02:55 | 26.67463 | 88.32774 | 414 ft | 21 kts | 182° |
| 2026-05-06 02:56 | 26.67324 | 88.32767 | 412 ft | 22 kts | 182° |
| 2026-05-06 02:56 | 26.67185 | 88.32761 | 411 ft | 21 kts | 182° |
| 2026-05-06 02:56 | 26.67042 | 88.32753 | 408 ft | 20 kts | 182° |
| 2026-05-06 02:56 | 26.66893 | 88.32745 | 405 ft | 16 kts | 183° |
| 2026-05-06 02:57 | 26.66846 | 88.32753 | 405 ft | 2 kts | 115° |
| 2026-05-06 02:57 | 26.66852 | 88.32760 | 405 ft | 3 kts | 52° |
| 2026-05-06 02:57 | 26.66871 | 88.32763 | 405 ft | 5 kts | 3° |
| 2026-05-06 02:57 | 26.66917 | 88.32765 | 406 ft | 4 kts | 1° |
| 2026-05-06 03:00 | 26.66924 | 88.32765 | 406 ft | 6 kts | 1° |
| 2026-05-06 03:00 | 26.67173 | 88.32774 | 411 ft | 77 kts | 1° |
| 2026-05-06 03:00 | 26.67970 | 88.32798 | 416 ft | 150 kts | 2° |
| 2026-05-06 03:01 | 26.69043 | 88.32966 | 1068 ft | 157 kts | 27° |
| 2026-05-06 03:01 | 26.69777 | 88.33859 | 1922 ft | 163 kts | 71° |
| 2026-05-06 03:01 | 26.69765 | 88.35117 | 2732 ft | 170 kts | 112° |
| 2026-05-06 03:01 | 26.69098 | 88.36301 | 3271 ft | 189 kts | 126° |
| 2026-05-06 03:02 | 26.68369 | 88.37605 | 3846 ft | 207 kts | 118° |
| 2026-05-06 03:02 | 26.67773 | 88.39145 | 4384 ft | 227 kts | 109° |
| 2026-05-06 03:02 | 26.67343 | 88.40932 | 4920 ft | 248 kts | 102° |
| 2026-05-06 03:02 | 26.67005 | 88.42863 | 5622 ft | 264 kts | 100° |
| 2026-05-06 03:03 | 26.66666 | 88.44921 | 6456 ft | 273 kts | 101° |
| 2026-05-06 03:03 | 26.66312 | 88.47026 | 7408 ft | 278 kts | 101° |
| 2026-05-06 03:03 | 26.65953 | 88.49160 | 8372 ft | 282 kts | 101° |
| 2026-05-06 03:03 | 26.65583 | 88.51332 | 9313 ft | 286 kts | 101° |
| 2026-05-06 03:04 | 26.65205 | 88.53527 | 10230 ft | 290 kts | 101° |
| 2026-05-06 03:04 | 26.64810 | 88.55802 | 10795 ft | 309 kts | 101° |
| 2026-05-06 03:04 | 26.64383 | 88.58251 | 11126 ft | 333 kts | 101° |
| 2026-05-06 03:04 | 26.63930 | 88.60844 | 11710 ft | 344 kts | 101° |
| 2026-05-06 03:05 | 26.63475 | 88.63445 | 12558 ft | 348 kts | 101° |
| 2026-05-06 03:05 | 26.63008 | 88.66113 | 13361 ft | 352 kts | 101° |
| 2026-05-06 03:05 | 26.62535 | 88.68812 | 14155 ft | 356 kts | 101° |
| 2026-05-06 03:05 | 26.62056 | 88.71543 | 14920 ft | 360 kts | 101° |
| 2026-05-06 03:06 | 26.61570 | 88.74305 | 15665 ft | 364 kts | 101° |
| 2026-05-06 03:06 | 26.61079 | 88.77098 | 16388 ft | 368 kts | 101° |
| 2026-05-06 03:06 | 26.60582 | 88.79920 | 17096 ft | 372 kts | 101° |
| 2026-05-06 03:06 | 26.60079 | 88.82773 | 17779 ft | 376 kts | 101° |
| 2026-05-06 03:07 | 26.59578 | 88.85616 | 18430 ft | 380 kts | 101° |
| 2026-05-06 03:07 | 26.59063 | 88.88526 | 19067 ft | 384 kts | 101° |
| 2026-05-06 03:07 | 26.58543 | 88.91464 | 19715 ft | 387 kts | 101° |
| 2026-05-06 03:07 | 26.58020 | 88.94427 | 20337 ft | 391 kts | 101° |
| 2026-05-06 03:08 | 26.57503 | 88.97428 | 20943 ft | 395 kts | 101° |
| 2026-05-06 03:08 | 26.56989 | 89.00450 | 21532 ft | 398 kts | 101° |
| 2026-05-06 03:08 | 26.56470 | 89.03503 | 22103 ft | 402 kts | 101° |
| 2026-05-06 03:08 | 26.55944 | 89.06581 | 22666 ft | 405 kts | 101° |
| 2026-05-06 03:09 | 26.55419 | 89.09644 | 23206 ft | 409 kts | 101° |
| 2026-05-06 03:09 | 26.54881 | 89.12773 | 23741 ft | 412 kts | 101° |
| 2026-05-06 03:09 | 26.54338 | 89.15928 | 24263 ft | 415 kts | 101° |
| 2026-05-06 03:09 | 26.53789 | 89.19107 | 24778 ft | 419 kts | 101° |
| 2026-05-06 03:10 | 26.53236 | 89.22310 | 25259 ft | 422 kts | 101° |
| 2026-05-06 03:10 | 26.52677 | 89.25537 | 25732 ft | 425 kts | 101° |
| 2026-05-06 03:10 | 26.52114 | 89.28787 | 26194 ft | 428 kts | 101° |
| 2026-05-06 03:10 | 26.51546 | 89.32060 | 26632 ft | 431 kts | 101° |
| 2026-05-06 03:11 | 26.50974 | 89.35354 | 27059 ft | 434 kts | 101° |
| 2026-05-06 03:11 | 26.50405 | 89.38625 | 27465 ft | 436 kts | 101° |
| 2026-05-06 03:11 | 26.49823 | 89.41961 | 27863 ft | 439 kts | 101° |
| 2026-05-06 03:11 | 26.49238 | 89.45312 | 28244 ft | 442 kts | 101° |
| 2026-05-06 03:12 | 26.48654 | 89.48688 | 28608 ft | 444 kts | 101° |
| 2026-05-06 03:12 | 26.48014 | 89.52066 | 28943 ft | 445 kts | 110° |
| 2026-05-06 03:12 | 26.47164 | 89.55384 | 29165 ft | 446 kts | 110° |
| 2026-05-06 03:12 | 26.46491 | 89.58765 | 29426 ft | 446 kts | 107° |
| 2026-05-06 03:13 | 26.45869 | 89.62146 | 29781 ft | 445 kts | 100° |
| 2026-05-06 03:13 | 26.45380 | 89.65584 | 29922 ft | 452 kts | 98° |
| 2026-05-06 03:13 | 26.44918 | 89.69026 | 30183 ft | 456 kts | 99° |
| 2026-05-06 03:13 | 26.44399 | 89.72522 | 30525 ft | 458 kts | 100° |
| 2026-05-06 03:14 | 26.43829 | 89.76025 | 30844 ft | 460 kts | 101° |
| 2026-05-06 03:14 | 26.43226 | 89.79538 | 31181 ft | 462 kts | 101° |
| 2026-05-06 03:14 | 26.42606 | 89.83052 | 31583 ft | 461 kts | 101° |
| 2026-05-06 03:14 | 26.41982 | 89.86560 | 31990 ft | 461 kts | 101° |
| 2026-05-06 03:15 | 26.41357 | 89.90061 | 32399 ft | 460 kts | 101° |
| 2026-05-06 03:15 | 26.40733 | 89.93555 | 32790 ft | 459 kts | 101° |
| 2026-05-06 03:15 | 26.40119 | 89.96992 | 33166 ft | 458 kts | 101° |
| 2026-05-06 03:15 | 26.39496 | 90.00474 | 33531 ft | 457 kts | 101° |
| 2026-05-06 03:16 | 26.38874 | 90.03949 | 33876 ft | 457 kts | 101° |
| 2026-05-06 03:16 | 26.38252 | 90.07418 | 34217 ft | 456 kts | 101° |
| 2026-05-06 03:16 | 26.37630 | 90.10882 | 34543 ft | 455 kts | 101° |
| 2026-05-06 03:16 | 26.37009 | 90.14340 | 34860 ft | 454 kts | 101° |
| 2026-05-06 03:17 | 26.36387 | 90.17792 | 35166 ft | 454 kts | 101° |
| 2026-05-06 03:17 | 26.35765 | 90.21239 | 35461 ft | 453 kts | 101° |
| 2026-05-06 03:17 | 26.35144 | 90.24681 | 35744 ft | 453 kts | 101° |
| 2026-05-06 03:17 | 26.34531 | 90.28073 | 36013 ft | 452 kts | 101° |
| 2026-05-06 03:18 | 26.33909 | 90.31506 | 36262 ft | 452 kts | 101° |
| 2026-05-06 03:18 | 26.33286 | 90.34945 | 36445 ft | 453 kts | 101° |
| 2026-05-06 03:18 | 26.32661 | 90.38384 | 36712 ft | 452 kts | 101° |
| 2026-05-06 03:18 | 26.32038 | 90.41814 | 36945 ft | 452 kts | 101° |
| 2026-05-06 03:19 | 26.31413 | 90.45245 | 36999 ft | 452 kts | 101° |
| 2026-05-06 03:19 | 26.30175 | 90.52028 | 36999 ft | 451 kts | 101° |
| 2026-05-06 03:20 | 26.28293 | 90.62306 | 37000 ft | 450 kts | 101° |
| 2026-05-06 03:20 | 26.27076 | 90.69107 | 37001 ft | 450 kts | 100° |
| 2026-05-06 03:21 | 26.26078 | 90.75993 | 36999 ft | 450 kts | 99° |
| 2026-05-06 03:21 | 26.25090 | 90.82875 | 36998 ft | 450 kts | 99° |
| 2026-05-06 03:22 | 26.24070 | 90.89752 | 36997 ft | 450 kts | 99° |
| 2026-05-06 03:22 | 26.23040 | 90.96626 | 36997 ft | 450 kts | 99° |
| 2026-05-06 03:23 | 26.22013 | 91.03452 | 36997 ft | 450 kts | 99° |
| 2026-05-06 03:23 | 26.20977 | 91.10323 | 36997 ft | 450 kts | 99° |
| 2026-05-06 03:24 | 26.19937 | 91.17194 | 36997 ft | 450 kts | 99° |
| 2026-05-06 03:24 | 26.18893 | 91.24064 | 36998 ft | 450 kts | 99° |
| 2026-05-06 03:25 | 26.17853 | 91.30889 | 36999 ft | 450 kts | 99° |
| 2026-05-06 03:25 | 26.16803 | 91.37761 | 36999 ft | 450 kts | 99° |
| 2026-05-06 03:26 | 26.15749 | 91.44633 | 37000 ft | 450 kts | 99° |
| 2026-05-06 03:26 | 26.14054 | 91.51307 | 36997 ft | 450 kts | 116° |
| 2026-05-06 03:27 | 26.10510 | 91.56937 | 36992 ft | 449 kts | 135° |
| 2026-05-06 03:27 | 26.05462 | 91.60953 | 36989 ft | 448 kts | 155° |
| 2026-05-06 03:28 | 25.99501 | 91.62925 | 37000 ft | 451 kts | 169° |
| 2026-05-06 03:28 | 25.93341 | 91.64313 | 37001 ft | 452 kts | 169° |
| 2026-05-06 03:29 | 25.87239 | 91.65697 | 36811 ft | 447 kts | 169° |
| 2026-05-06 03:29 | 25.84198 | 91.66384 | 36332 ft | 446 kts | 169° |
| 2026-05-06 03:29 | 25.81155 | 91.67070 | 35651 ft | 447 kts | 169° |
| 2026-05-06 03:30 | 25.78101 | 91.67757 | 34866 ft | 449 kts | 169° |
| 2026-05-06 03:30 | 25.75024 | 91.68450 | 34052 ft | 452 kts | 169° |
| 2026-05-06 03:30 | 25.71938 | 91.69144 | 33288 ft | 453 kts | 169° |
| 2026-05-06 03:30 | 25.68846 | 91.69839 | 32598 ft | 453 kts | 169° |
| 2026-05-06 03:31 | 25.65752 | 91.70534 | 32180 ft | 457 kts | 169° |
| 2026-05-06 03:31 | 25.62598 | 91.71243 | 31929 ft | 466 kts | 169° |
| 2026-05-06 03:31 | 25.59462 | 91.71952 | 31680 ft | 466 kts | 168° |
| 2026-05-06 03:31 | 25.56279 | 91.72674 | 31431 ft | 467 kts | 168° |
| 2026-05-06 03:32 | 25.53088 | 91.73396 | 31182 ft | 469 kts | 168° |
| 2026-05-06 03:32 | 25.49894 | 91.74119 | 30932 ft | 468 kts | 169° |
| 2026-05-06 03:32 | 25.46699 | 91.74841 | 30685 ft | 469 kts | 169° |
| 2026-05-06 03:32 | 25.43507 | 91.75562 | 30302 ft | 468 kts | 169° |
| 2026-05-06 03:33 | 25.40314 | 91.76282 | 29664 ft | 468 kts | 169° |
| 2026-05-06 03:33 | 25.37138 | 91.76999 | 29049 ft | 464 kts | 168° |
| 2026-05-06 03:33 | 25.33993 | 91.77708 | 28446 ft | 459 kts | 169° |
| 2026-05-06 03:33 | 25.30927 | 91.78400 | 27849 ft | 454 kts | 169° |
| 2026-05-06 03:34 | 25.27853 | 91.79092 | 27253 ft | 448 kts | 169° |
| 2026-05-06 03:34 | 25.24815 | 91.79776 | 26659 ft | 443 kts | 169° |
| 2026-05-06 03:34 | 25.21812 | 91.80452 | 26072 ft | 438 kts | 169° |
| 2026-05-06 03:34 | 25.18843 | 91.81120 | 25494 ft | 433 kts | 169° |
| 2026-05-06 03:35 | 25.16895 | 91.81558 | 25104 ft | 429 kts | 169° |
| 2026-05-06 03:35 | 25.13009 | 91.82430 | 24334 ft | 423 kts | 169° |
| 2026-05-06 03:35 | 25.10142 | 91.83073 | 23763 ft | 418 kts | 169° |
| 2026-05-06 03:35 | 25.07345 | 91.83699 | 23201 ft | 413 kts | 169° |
| 2026-05-06 03:36 | 25.04542 | 91.84327 | 22639 ft | 409 kts | 169° |
| 2026-05-06 03:36 | 25.01770 | 91.84947 | 22077 ft | 404 kts | 169° |
| 2026-05-06 03:36 | 24.99019 | 91.85508 | 21517 ft | 400 kts | 174° |
| 2026-05-06 03:36 | 24.96265 | 91.85438 | 20972 ft | 394 kts | 189° |
| 2026-05-06 03:37 | 24.94512 | 91.84963 | 20606 ft | 391 kts | 200° |
| 2026-05-06 03:37 | 24.91266 | 91.83232 | 19880 ft | 385 kts | 208° |
| 2026-05-06 03:37 | 24.89704 | 91.82315 | 19523 ft | 383 kts | 208° |
| 2026-05-06 03:37 | 24.86612 | 91.80504 | 18809 ft | 378 kts | 208° |
| 2026-05-06 03:38 | 24.84302 | 91.79155 | 18267 ft | 374 kts | 208° |
| 2026-05-06 03:38 | 24.82014 | 91.77821 | 17750 ft | 371 kts | 208° |
| 2026-05-06 03:38 | 24.79745 | 91.76499 | 17220 ft | 367 kts | 208° |
| 2026-05-06 03:38 | 24.77496 | 91.75190 | 16701 ft | 364 kts | 208° |
| 2026-05-06 03:39 | 24.76016 | 91.74328 | 16362 ft | 362 kts | 208° |
| 2026-05-06 03:39 | 24.73798 | 91.73038 | 15842 ft | 359 kts | 208° |
| 2026-05-06 03:39 | 24.71599 | 91.71759 | 15336 ft | 356 kts | 208° |
| 2026-05-06 03:39 | 24.68715 | 91.70082 | 14656 ft | 352 kts | 208° |
| 2026-05-06 03:40 | 24.67257 | 91.69235 | 14316 ft | 350 kts | 208° |
| 2026-05-06 03:40 | 24.64419 | 91.67585 | 13655 ft | 346 kts | 208° |
| 2026-05-06 03:40 | 24.62987 | 91.66751 | 13321 ft | 344 kts | 208° |
| 2026-05-06 03:40 | 24.60907 | 91.65540 | 12836 ft | 342 kts | 208° |
| 2026-05-06 03:41 | 24.58815 | 91.64322 | 12347 ft | 339 kts | 208° |
| 2026-05-06 03:41 | 24.56741 | 91.63115 | 11863 ft | 336 kts | 208° |
| 2026-05-06 03:41 | 24.54683 | 91.61919 | 11383 ft | 333 kts | 208° |
| 2026-05-06 03:41 | 24.52644 | 91.60734 | 10904 ft | 330 kts | 208° |
| 2026-05-06 03:42 | 24.49969 | 91.59181 | 10345 ft | 325 kts | 208° |
| 2026-05-06 03:42 | 24.48012 | 91.58045 | 10214 ft | 311 kts | 208° |
| 2026-05-06 03:42 | 24.46739 | 91.57306 | 10131 ft | 302 kts | 208° |
| 2026-05-06 03:42 | 24.44913 | 91.56246 | 9918 ft | 293 kts | 208° |
| 2026-05-06 03:43 | 24.42553 | 91.54877 | 9591 ft | 284 kts | 208° |
| 2026-05-06 03:43 | 24.41447 | 91.54119 | 9509 ft | 284 kts | 217° |
| 2026-05-06 03:43 | 24.39855 | 91.52803 | 9389 ft | 287 kts | 217° |
| 2026-05-06 03:43 | 24.38280 | 91.51486 | 9193 ft | 283 kts | 218° |
| 2026-05-06 03:44 | 24.36719 | 91.50177 | 8837 ft | 282 kts | 218° |
| 2026-05-06 03:44 | 24.35161 | 91.48873 | 8463 ft | 281 kts | 218° |
| 2026-05-06 03:44 | 24.33611 | 91.47578 | 8084 ft | 279 kts | 218° |
| 2026-05-06 03:44 | 24.32069 | 91.46292 | 7708 ft | 278 kts | 217° |
| 2026-05-06 03:45 | 24.30535 | 91.45012 | 7328 ft | 276 kts | 217° |
| 2026-05-06 03:45 | 24.29029 | 91.43758 | 6960 ft | 275 kts | 217° |
| 2026-05-06 03:45 | 24.27510 | 91.42493 | 6586 ft | 273 kts | 217° |
| 2026-05-06 03:45 | 24.26001 | 91.41235 | 6215 ft | 272 kts | 217° |
| 2026-05-06 03:46 | 24.24498 | 91.39984 | 5850 ft | 270 kts | 217° |
| 2026-05-06 03:46 | 24.23011 | 91.38747 | 5614 ft | 264 kts | 217° |
| 2026-05-06 03:46 | 24.21582 | 91.37558 | 5509 ft | 252 kts | 217° |
| 2026-05-06 03:46 | 24.20216 | 91.36422 | 5414 ft | 241 kts | 217° |
| 2026-05-06 03:47 | 24.18911 | 91.35338 | 5320 ft | 230 kts | 218° |
| 2026-05-06 03:47 | 24.17670 | 91.34305 | 5155 ft | 225 kts | 218° |
| 2026-05-06 03:47 | 24.16429 | 91.33273 | 4892 ft | 224 kts | 218° |
| 2026-05-06 03:47 | 24.15189 | 91.32243 | 4627 ft | 223 kts | 217° |
| 2026-05-06 03:48 | 24.13954 | 91.31217 | 4359 ft | 223 kts | 218° |
| 2026-05-06 03:48 | 24.12746 | 91.30214 | 4242 ft | 212 kts | 218° |
| 2026-05-06 03:48 | 24.11604 | 91.29266 | 4140 ft | 202 kts | 218° |
| 2026-05-06 03:48 | 24.10496 | 91.28348 | 3924 ft | 198 kts | 218° |
| 2026-05-06 03:49 | 24.09401 | 91.27439 | 3669 ft | 197 kts | 218° |
| 2026-05-06 03:49 | 24.08309 | 91.26534 | 3417 ft | 197 kts | 217° |
| 2026-05-06 03:49 | 24.07161 | 91.25769 | 3185 ft | 197 kts | 199° |
| 2026-05-06 03:49 | 24.05820 | 91.25527 | 2918 ft | 196 kts | 184° |
| 2026-05-06 03:50 | 24.04458 | 91.25432 | 2696 ft | 196 kts | 184° |
| 2026-05-06 03:50 | 24.03105 | 91.25325 | 2491 ft | 194 kts | 185° |
| 2026-05-06 03:50 | 24.01755 | 91.25210 | 2217 ft | 194 kts | 185° |
| 2026-05-06 03:50 | 24.00420 | 91.25097 | 2057 ft | 190 kts | 185° |
| 2026-05-06 03:51 | 23.99127 | 91.24988 | 1923 ft | 177 kts | 185° |
| 2026-05-06 03:51 | 23.97978 | 91.24888 | 1686 ft | 155 kts | 185° |
| 2026-05-06 03:51 | 23.96939 | 91.24799 | 1484 ft | 150 kts | 185° |
| 2026-05-06 03:51 | 23.96683 | 91.24776 | 1436 ft | 151 kts | 185° |
| 2026-05-06 03:52 | 23.96014 | 91.24719 | 1310 ft | 149 kts | 185° |
| 2026-05-06 03:52 | 23.94985 | 91.24630 | 1106 ft | 148 kts | 185° |
| 2026-05-06 03:52 | 23.93957 | 91.24542 | 915 ft | 148 kts | 185° |
| 2026-05-06 03:52 | 23.92931 | 91.24455 | 704 ft | 148 kts | 185° |
| 2026-05-06 03:53 | 23.92675 | 91.24433 | 652 ft | 148 kts | 185° |
| 2026-05-06 03:54 | 23.92234 | 91.24396 | 548 ft | 148 kts | 185° |
| 2026-05-06 03:54 | 23.91219 | 91.24313 | 409 ft | 148 kts | 185° |
| 2026-05-06 03:55 | 23.90199 | 91.24212 | 196 ft | 147 kts | 186° |
| 2026-05-06 03:55 | 23.89197 | 91.24127 | 66 ft | 137 kts | 185° |
| 2026-05-06 03:55 | 23.88383 | 91.24064 | 56 ft | 81 kts | 183° |
| 2026-05-06 03:55 | 23.88176 | 91.24060 | 60 ft | 0 kts | 143° |
| 2026-05-06 03:56 | 23.88153 | 91.24076 | 62 ft | 6 kts | 160° |
| 2026-05-06 03:56 | 23.88143 | 91.24046 | 57 ft | 5 kts | 313° |
| 2026-05-06 03:56 | 23.88175 | 91.24045 | 59 ft | 6 kts | 359° |
| 2026-05-06 03:56 | 23.88232 | 91.24050 | 59 ft | 10 kts | 5° |
| 2026-05-06 03:57 | 23.88314 | 91.24059 | 54 ft | 14 kts | 5° |
| 2026-05-06 03:57 | 23.88425 | 91.24070 | 56 ft | 18 kts | 5° |
| 2026-05-06 03:57 | 23.88494 | 91.24122 | 54 ft | 6 kts | 102° |
| 2026-05-06 03:57 | 23.88489 | 91.24176 | 59 ft | 8 kts | 96° |
| 2026-05-06 03:58 | 23.88481 | 91.24248 | 60 ft | 11 kts | 96° |
| 2026-05-06 03:58 | 23.88503 | 91.24328 | 58 ft | 7 kts | 86° |
| 2026-05-06 03:58 | 23.88502 | 91.24336 | 57 ft | 0 kts | 97° |